createdAt,value
2023-01-08T00:00:06.053Z,99970.78
2023-01-08T00:01:18.109Z,99978.31
2023-01-08T00:01:59.069Z,99977.09
2023-01-08T00:02:46.118Z,99973.72
2023-01-08T00:03:19.941Z,99967.13
2023-01-08T00:04:09.111Z,99964.66
2023-01-08T00:04:43.088Z,99965.38
2023-01-08T00:05:30.052Z,99947.81
2023-01-08T00:06:06.393Z,99966.34
2023-01-08T00:06:54.031Z,99961.31
2023-01-08T00:07:27.991Z,99956.72
2023-01-08T00:08:08.053Z,99946.31
2023-01-08T00:08:42.115Z,99949.97
2023-01-08T00:09:15.735Z,99943.09
2023-01-08T00:09:57.042Z,99952.88
2023-01-08T00:10:31.139Z,99941.28
2023-01-08T00:11:05.175Z,99934.78
2023-01-08T00:11:46.051Z,99947.44
2023-01-08T00:12:20.106Z,99950.81
2023-01-08T00:12:56.068Z,99954.88
2023-01-08T00:13:37.059Z,99960.78
2023-01-08T00:14:11.095Z,99940.09
2023-01-08T00:14:44.747Z,99935.19
2023-01-08T00:15:25.043Z,99935.78
2023-01-08T00:15:59.949Z,99951.75
2023-01-08T00:16:33.813Z,99960.66
2023-01-08T00:17:15.051Z,99955.53
2023-01-08T00:17:49.103Z,99941.47
2023-01-08T00:18:24.136Z,99929.47
2023-01-08T00:19:05.034Z,99934.91
2023-01-08T00:19:41.907Z,99951.06
2023-01-08T00:20:15.892Z,99922.69
2023-01-08T00:20:56.032Z,99957.16
2023-01-08T00:21:37.100Z,99948.88
2023-01-08T00:22:17.057Z,99951.56
2023-01-08T00:22:58.091Z,99941.69
2023-01-08T00:23:39.045Z,99937.41
2023-01-08T00:24:26.044Z,99950.16
2023-01-08T00:24:59.724Z,99951.72
2023-01-08T00:25:47.044Z,99942.09
2023-01-08T00:26:22.002Z,99934.66
2023-01-08T00:27:09.015Z,99919.41
2023-01-08T00:27:43.001Z,99951.13
2023-01-08T00:28:30.032Z,99950.50
2023-01-08T00:29:03.743Z,99946.59
2023-01-08T00:29:51.069Z,99947.69
2023-01-08T00:30:24.752Z,99956.50
2023-01-08T00:31:13.091Z,99945.78
2023-01-08T00:31:46.789Z,99929.16
2023-01-08T00:32:34.015Z,99933.59
2023-01-08T00:33:07.761Z,99955.59
2023-01-08T00:33:56.023Z,99949.84
2023-01-08T00:34:29.765Z,99932.75
2023-01-08T00:35:12.065Z,99956.06
2023-01-08T00:35:46.082Z,99952.44
2023-01-08T00:36:20.482Z,99962.19
2023-01-08T00:37:00.014Z,99953.00
2023-01-08T00:37:35.076Z,99941.28
2023-01-08T00:38:08.988Z,99942.13
2023-01-08T00:38:51.024Z,99955.72
2023-01-08T00:39:25.098Z,99940.22
2023-01-08T00:39:58.681Z,99966.59
2023-01-08T00:40:43.044Z,99945.84
2023-01-08T00:41:17.098Z,99955.91
2023-01-08T00:41:50.808Z,99967.25
2023-01-08T00:42:31.213Z,99956.91
2023-01-08T00:43:05.093Z,99958.69
2023-01-08T00:43:38.775Z,99943.19
2023-01-08T00:44:20.014Z,99944.78
2023-01-08T00:44:54.067Z,99951.28
2023-01-08T00:45:27.754Z,99940.03
2023-01-08T00:46:09.099Z,99954.25
2023-01-08T00:46:43.058Z,99940.50
2023-01-08T00:47:16.750Z,99949.06
2023-01-08T00:47:57.016Z,99931.47
2023-01-08T00:48:31.356Z,99943.47
2023-01-08T00:49:05.722Z,99949.56
2023-01-08T00:49:45.988Z,99919.47
2023-01-08T00:50:20.069Z,99941.53
2023-01-08T00:50:54.208Z,99927.81
2023-01-08T00:51:34.023Z,99929.53
2023-01-08T00:52:08.065Z,99919.28
2023-01-08T00:52:54.994Z,99918.50
2023-01-08T00:53:30.095Z,99942.72
2023-01-08T00:54:18.145Z,99932.16
2023-01-08T00:54:52.067Z,99927.00
2023-01-08T00:55:39.003Z,99925.06
2023-01-08T00:56:17.070Z,99914.44
2023-01-08T00:56:57.025Z,99934.91
2023-01-08T00:57:45.055Z,99951.28
2023-01-08T00:58:24.977Z,99931.25
2023-01-08T00:59:05.040Z,99940.28
2023-01-08T00:59:44.978Z,99939.75
2023-01-08T01:00:25.446Z,99936.94
2023-01-08T01:01:06.019Z,99932.78
2023-01-08T01:01:46.116Z,99919.41
2023-01-08T01:02:26.134Z,99927.34
2023-01-08T01:03:06.054Z,99937.47
2023-01-08T01:03:47.029Z,99945.28
2023-01-08T01:04:27.134Z,99940.16
2023-01-08T01:05:06.984Z,99956.00
2023-01-08T01:05:47.039Z,99954.53
2023-01-08T01:06:27.971Z,99958.06
2023-01-08T01:07:08.082Z,99956.84
2023-01-08T01:07:50.021Z,99948.53
2023-01-08T01:08:30.083Z,99938.38
2023-01-08T01:09:10.986Z,99942.22
2023-01-08T01:09:51.060Z,99942.09
2023-01-08T01:10:30.976Z,99937.00
2023-01-08T01:11:17.064Z,99958.44
2023-01-08T01:11:56.976Z,99921.72
2023-01-08T01:12:37.167Z,99948.16
2023-01-08T01:13:18.011Z,99922.69
2023-01-08T01:13:59.067Z,99953.34
2023-01-08T01:14:38.991Z,99958.06
2023-01-08T01:15:22.071Z,99942.63
2023-01-08T01:16:06.962Z,99937.06
2023-01-08T01:16:48.604Z,99932.88
2023-01-08T01:17:29.965Z,99961.81
2023-01-08T01:18:10.047Z,99948.28
2023-01-08T01:18:50.975Z,99944.44
2023-01-08T01:19:31.028Z,99957.84
2023-01-08T01:20:12.988Z,99950.34
2023-01-08T01:20:53.040Z,99947.78
2023-01-08T01:21:37.981Z,99936.53
2023-01-08T01:22:19.195Z,99932.44
2023-01-08T01:22:58.966Z,99957.97
2023-01-08T01:23:39.021Z,99936.22
2023-01-08T01:24:19.967Z,99964.06
2023-01-08T01:25:00.011Z,99941.25
2023-01-08T01:25:45.873Z,99940.81
2023-01-08T01:26:28.052Z,99949.28
2023-01-08T01:27:08.976Z,99928.72
2023-01-08T01:27:49.033Z,99922.28
2023-01-08T01:28:28.988Z,99925.81
2023-01-08T01:29:09.147Z,99944.78
2023-01-08T01:29:49.004Z,99932.59
2023-01-08T01:30:29.012Z,99927.00
2023-01-08T01:31:09.984Z,99928.06
2023-01-08T01:31:50.028Z,99918.72
2023-01-08T01:32:29.961Z,99916.59
2023-01-08T01:33:10.054Z,99920.56
2023-01-08T01:33:49.969Z,99939.97
2023-01-08T01:34:30.036Z,99939.22
2023-01-08T01:35:10.968Z,99944.47
2023-01-08T01:35:51.044Z,99943.19
2023-01-08T01:36:32.951Z,99929.78
2023-01-08T01:37:13.187Z,99937.94
2023-01-08T01:37:52.956Z,99920.91
2023-01-08T01:38:32.993Z,99937.28
2023-01-08T01:39:13.946Z,99911.97
2023-01-08T01:39:54.127Z,99926.56
2023-01-08T01:40:34.009Z,99942.00
2023-01-08T01:41:14.033Z,99945.44
2023-01-08T01:41:53.950Z,99925.72
2023-01-08T01:42:39.948Z,99942.22
2023-01-08T01:43:20.939Z,99928.06
2023-01-08T01:44:05.014Z,99926.56
2023-01-08T01:44:51.928Z,99927.84
2023-01-08T01:45:41.021Z,99932.03
2023-01-08T01:46:53.989Z,99919.69
2023-01-08T01:47:51.946Z,99916.81
2023-01-08T01:48:45.934Z,99921.94
2023-01-08T01:49:39.956Z,99923.88
2023-01-08T01:50:54.968Z,99931.69
2023-01-08T01:51:49.967Z,99922.38
2023-01-08T01:52:47.957Z,99909.44
2023-01-08T01:53:47.968Z,99928.94
2023-01-08T01:54:43.943Z,99914.78
2023-01-08T01:55:39.938Z,99905.59
2023-01-08T01:56:20.947Z,99911.56
2023-01-08T01:57:01.171Z,99900.84
2023-01-08T01:57:40.913Z,99940.50
2023-01-08T01:58:23.023Z,99926.13
2023-01-08T01:59:03.949Z,99915.53
2023-01-08T01:59:43.994Z,99931.19
2023-01-08T02:00:24.940Z,99914.56
2023-01-08T02:01:11.096Z,99920.56
2023-01-08T02:01:52.123Z,99915.97
2023-01-08T02:02:32.628Z,99921.75
2023-01-08T02:03:13.931Z,99905.47
2023-01-08T02:03:54.026Z,99906.53
2023-01-08T02:04:33.941Z,99912.09
2023-01-08T02:05:14.967Z,99883.63
2023-01-08T02:06:20.940Z,99905.16
2023-01-08T02:07:21.010Z,99918.22
2023-01-08T02:08:26.917Z,99923.34
2023-01-08T02:09:36.923Z,99915.44
2023-01-08T02:10:42.909Z,99917.88
2023-01-08T02:12:19.957Z,99915.88
2023-01-08T02:13:05.948Z,99910.41
2023-01-08T02:13:50.008Z,99917.78
2023-01-08T02:14:45.927Z,99912.00
2023-01-08T02:15:40.983Z,99914.56
2023-01-08T02:16:27.920Z,99890.88
2023-01-08T02:17:15.992Z,99916.19
2023-01-08T02:18:15.919Z,99896.16
2023-01-08T02:19:27.014Z,99899.38
2023-01-08T02:20:33.918Z,99904.50
2023-01-08T02:21:19.992Z,99896.16
2023-01-08T02:22:35.897Z,99902.25
2023-01-08T02:24:11.920Z,99907.06
2023-01-08T02:25:30.914Z,99900.00
2023-01-08T02:26:43.916Z,99900.41
2023-01-08T02:27:38.905Z,99906.63
2023-01-08T02:28:33.905Z,99903.94
2023-01-08T02:29:31.923Z,99881.13
2023-01-08T02:30:25.897Z,99884.44
2023-01-08T02:31:20.031Z,99887.13
2023-01-08T02:32:13.904Z,99873.19
2023-01-08T02:33:07.916Z,99857.75
2023-01-08T02:34:01.889Z,99862.69
2023-01-08T02:34:48.911Z,99862.25
2023-01-08T02:35:23.021Z,99833.63
2023-01-08T02:36:49.888Z,99885.69
2023-01-08T02:37:23.947Z,99875.78
2023-01-08T02:38:11.896Z,99880.03
2023-01-08T02:39:15.667Z,99856.66
2023-01-08T02:40:18.903Z,99881.31
2023-01-08T02:41:12.966Z,99848.34
2023-01-08T02:41:59.867Z,99880.78
2023-01-08T02:42:52.987Z,99858.38
2023-01-08T02:43:52.888Z,99872.53
2023-01-08T02:45:16.974Z,99883.25
2023-01-08T02:46:01.956Z,99865.88
2023-01-08T02:46:44.951Z,99866.97
2023-01-08T02:47:47.870Z,99884.13
2023-01-08T02:48:48.947Z,99881.13
2023-01-08T02:49:31.872Z,99852.19
2023-01-08T02:50:28.968Z,99884.22
2023-01-08T02:51:13.903Z,99875.78
2023-01-08T02:52:00.330Z,99878.75
2023-01-08T02:52:48.888Z,99878.47
2023-01-08T02:53:42.989Z,99883.50
2023-01-08T02:54:30.896Z,99884.25
2023-01-08T02:55:11.941Z,99871.28
2023-01-08T02:55:57.866Z,99874.25
2023-01-08T02:56:42.879Z,99841.91
2023-01-08T02:57:21.969Z,99874.25
2023-01-08T02:58:10.873Z,99882.53
2023-01-08T02:58:47.886Z,99879.00
2023-01-08T02:59:36.876Z,99879.63
2023-01-08T03:00:12.944Z,99882.72
2023-01-08T03:01:00.885Z,99863.03
2023-01-08T03:01:35.292Z,99865.06
2023-01-08T03:03:33.873Z,99868.91
2023-01-08T03:04:14.005Z,99865.69
2023-01-08T03:05:08.874Z,99872.78
2023-01-08T03:05:42.969Z,99849.88
2023-01-08T03:06:30.871Z,99873.22
2023-01-08T03:07:04.926Z,99876.75
2023-01-08T03:07:51.863Z,99846.41
2023-01-08T03:08:25.919Z,99851.75
2023-01-08T03:09:06.926Z,99878.66
2023-01-08T03:09:46.926Z,99863.69
2023-01-08T03:10:29.868Z,99880.81
2023-01-08T03:11:18.937Z,99873.31
2023-01-08T03:12:30.846Z,99872.25
2023-01-08T03:13:17.924Z,99875.97
2023-01-08T03:14:20.875Z,99855.22
2023-01-08T03:15:07.909Z,99855.41
2023-01-08T03:15:58.830Z,99860.16
2023-01-08T03:16:55.994Z,99867.88
2023-01-08T03:17:43.859Z,99855.41
2023-01-08T03:18:32.069Z,99860.16
2023-01-08T03:19:52.879Z,99866.97
2023-01-08T03:20:32.922Z,99843.66
2023-01-08T03:21:13.854Z,99850.16
2023-01-08T03:21:55.599Z,99842.75
2023-01-08T03:22:37.833Z,99837.19
2023-01-08T03:23:33.851Z,99845.13
2023-01-08T03:24:30.844Z,99858.63
2023-01-08T03:25:21.861Z,99853.91
2023-01-08T03:25:56.002Z,99842.69
2023-01-08T03:26:43.830Z,99862.69
2023-01-08T03:27:21.896Z,99850.47
2023-01-08T03:28:12.834Z,99867.19
2023-01-08T03:28:52.889Z,99839.97
2023-01-08T03:29:40.839Z,99851.97
2023-01-08T03:30:15.934Z,99855.41
2023-01-08T03:30:56.888Z,99855.16
2023-01-08T03:31:37.938Z,99830.56
2023-01-08T03:32:21.842Z,99844.06
2023-01-08T03:33:05.913Z,99842.44
2023-01-08T03:33:47.822Z,99848.53
2023-01-08T03:34:29.883Z,99858.81
2023-01-08T03:35:12.812Z,99854.53
2023-01-08T03:36:03.841Z,99861.06
2023-01-08T03:37:01.846Z,99858.50
2023-01-08T03:38:00.854Z,99862.44
2023-01-08T03:39:12.824Z,99836.25
2023-01-08T03:40:13.829Z,99844.63
2023-01-08T03:41:17.861Z,99849.78
2023-01-08T03:42:15.839Z,99847.00
2023-01-08T03:43:09.832Z,99849.38
2023-01-08T03:44:03.823Z,99846.50
2023-01-08T03:44:57.839Z,99860.31
2023-01-08T03:45:53.830Z,99860.63
2023-01-08T03:46:48.847Z,99858.34
2023-01-08T03:47:23.102Z,99864.81
2023-01-08T03:48:11.797Z,99856.78
2023-01-08T03:48:45.884Z,99866.53
2023-01-08T03:49:35.824Z,99849.19
2023-01-08T03:50:13.906Z,99863.00
2023-01-08T03:51:00.813Z,99828.38
2023-01-08T03:51:34.889Z,99855.03
2023-01-08T03:52:15.838Z,99857.53
2023-01-08T03:52:55.878Z,99841.88
2023-01-08T03:53:36.798Z,99852.19
2023-01-08T03:54:30.858Z,99843.28
2023-01-08T03:55:11.796Z,99863.13
2023-01-08T03:55:51.872Z,99865.78
2023-01-08T03:56:32.824Z,99843.19
2023-01-08T03:57:12.889Z,99836.72
2023-01-08T03:57:53.825Z,99854.66
2023-01-08T03:58:33.860Z,99839.00
2023-01-08T03:59:13.798Z,99842.03
2023-01-08T03:59:53.887Z,99837.84
2023-01-08T04:00:33.789Z,99833.34
2023-01-08T04:01:13.983Z,99831.44
2023-01-08T04:01:53.883Z,99845.00
2023-01-08T04:02:34.989Z,99845.97
2023-01-08T04:03:15.821Z,99825.41
2023-01-08T04:03:55.926Z,99829.06
2023-01-08T04:04:35.813Z,99835.50
2023-01-08T04:05:16.875Z,99820.06
2023-01-08T04:05:56.798Z,99847.91
2023-01-08T04:06:36.859Z,99848.53
2023-01-08T04:07:18.794Z,99825.94
2023-01-08T04:08:02.883Z,99841.34
2023-01-08T04:08:42.799Z,99838.91
2023-01-08T04:09:22.910Z,99837.84
2023-01-08T04:10:02.802Z,99841.28
2023-01-08T04:10:42.893Z,99841.47
2023-01-08T04:11:23.802Z,99821.88
2023-01-08T04:12:03.862Z,99837.84
2023-01-08T04:12:43.795Z,99824.75
2023-01-08T04:13:23.856Z,99836.66
2023-01-08T04:14:03.838Z,99848.34
2023-01-08T04:14:43.836Z,99816.41
2023-01-08T04:15:24.826Z,99834.59
2023-01-08T04:16:04.936Z,99847.69
2023-01-08T04:16:44.795Z,99830.97
2023-01-08T04:17:24.860Z,99826.16
2023-01-08T04:18:04.777Z,99834.41
2023-01-08T04:18:44.845Z,99845.56
2023-01-08T04:19:24.796Z,99830.16
2023-01-08T04:20:04.854Z,99836.44
2023-01-08T04:20:45.769Z,99811.91
2023-01-08T04:21:25.904Z,99801.66
2023-01-08T04:22:05.784Z,99817.41
2023-01-08T04:22:45.846Z,99807.66
2023-01-08T04:23:25.785Z,99821.47
2023-01-08T04:24:05.865Z,99814.59
2023-01-08T04:24:45.809Z,99803.22
2023-01-08T04:25:39.774Z,99793.63
2023-01-08T04:26:33.764Z,99792.88
2023-01-08T04:27:27.908Z,99813.22
2023-01-08T04:28:22.769Z,99794.03
2023-01-08T04:29:17.807Z,99811.50
2023-01-08T04:30:04.834Z,99780.78
2023-01-08T04:30:38.899Z,99792.66
2023-01-08T04:31:25.970Z,99779.50
2023-01-08T04:31:59.839Z,99802.31
2023-01-08T04:32:46.777Z,99792.22
2023-01-08T04:33:20.902Z,99793.50
2023-01-08T04:34:07.815Z,99769.44
2023-01-08T04:34:41.823Z,99760.78
2023-01-08T04:35:28.789Z,99769.34
2023-01-08T04:36:02.894Z,99784.00
2023-01-08T04:36:49.792Z,99760.78
2023-01-08T04:37:23.835Z,99768.91
2023-01-08T04:38:11.820Z,99772.75
2023-01-08T04:38:45.827Z,99781.09
2023-01-08T04:39:32.754Z,99763.22
2023-01-08T04:40:06.825Z,99757.13
2023-01-08T04:40:53.782Z,99743.59
2023-01-08T04:41:27.856Z,99738.47
2023-01-08T04:42:14.759Z,99772.53
2023-01-08T04:42:48.836Z,99765.91
2023-01-08T04:43:37.774Z,99779.41
2023-01-08T04:44:11.892Z,99756.47
2023-01-08T04:44:58.762Z,99765.72
2023-01-08T04:45:32.799Z,99768.94
2023-01-08T04:46:13.799Z,99773.00
2023-01-08T04:46:53.847Z,99772.97
2023-01-08T04:47:33.733Z,99767.53
2023-01-08T04:48:13.839Z,99765.47
2023-01-08T04:48:54.768Z,99762.06
2023-01-08T04:49:34.819Z,99744.31
2023-01-08T04:50:15.751Z,99731.97
2023-01-08T04:50:55.856Z,99724.81
2023-01-08T04:51:35.794Z,99760.66
2023-01-08T04:52:15.802Z,99750.81
2023-01-08T04:52:55.737Z,99731.91
2023-01-08T04:53:36.851Z,99746.88
2023-01-08T04:54:17.738Z,99721.28
2023-01-08T04:54:57.865Z,99742.69
2023-01-08T04:55:39.678Z,99753.06
2023-01-08T04:56:19.830Z,99756.81
2023-01-08T04:56:59.772Z,99741.09
2023-01-08T04:57:39.811Z,99743.03
2023-01-08T04:58:19.730Z,99751.91
2023-01-08T04:58:59.832Z,99756.41
2023-01-08T04:59:40.743Z,99765.63
2023-01-08T05:00:21.796Z,99746.78
2023-01-08T05:01:01.727Z,99749.22
2023-01-08T05:01:41.978Z,99757.59
2023-01-08T05:02:22.918Z,99762.84
2023-01-08T05:03:02.867Z,99759.63
2023-01-08T05:03:42.748Z,99758.53
2023-01-08T05:04:22.791Z,99757.56
2023-01-08T05:05:02.724Z,99756.28
2023-01-08T05:05:42.806Z,99779.31
2023-01-08T05:06:22.726Z,99762.59
2023-01-08T05:07:02.787Z,99764.84
2023-01-08T05:07:42.775Z,99772.44
2023-01-08T05:08:22.818Z,99771.91
2023-01-08T05:09:03.751Z,99750.94
2023-01-08T05:09:43.830Z,99769.31
2023-01-08T05:10:24.724Z,99756.38
2023-01-08T05:11:08.820Z,99756.63
2023-01-08T05:11:49.741Z,99752.66
2023-01-08T05:12:29.797Z,99734.22
2023-01-08T05:13:09.743Z,99749.00
2023-01-08T05:13:49.895Z,99761.38
2023-01-08T05:14:29.738Z,99764.84
2023-01-08T05:15:09.805Z,99746.84
2023-01-08T05:15:49.841Z,99763.34
2023-01-08T05:16:31.968Z,99751.03
2023-01-08T05:17:11.719Z,99753.69
2023-01-08T05:17:51.771Z,99737.34
2023-01-08T05:18:31.783Z,99750.72
2023-01-08T05:19:11.827Z,99748.25
2023-01-08T05:19:51.703Z,99764.66
2023-01-08T05:20:31.784Z,99755.22
2023-01-08T05:21:12.750Z,99773.00
2023-01-08T05:21:53.213Z,99751.25
2023-01-08T05:22:32.734Z,99770.19
2023-01-08T05:23:12.785Z,99752.66
2023-01-08T05:23:54.739Z,99765.16
2023-01-08T05:24:34.772Z,99756.81
2023-01-08T05:25:15.715Z,99743.88
2023-01-08T05:26:13.699Z,99751.47
2023-01-08T05:27:07.703Z,99771.50
2023-01-08T05:28:01.714Z,99774.69
2023-01-08T05:28:55.764Z,99754.91
2023-01-08T05:29:49.731Z,99737.88
2023-01-08T05:30:43.768Z,99768.94
2023-01-08T05:31:38.713Z,99761.00
2023-01-08T05:32:32.708Z,99740.88
2023-01-08T05:33:26.699Z,99751.59
2023-01-08T05:34:13.729Z,99755.84
2023-01-08T05:34:47.809Z,99739.50
2023-01-08T05:35:34.707Z,99756.28
2023-01-08T05:36:12.809Z,99750.31
2023-01-08T05:36:59.710Z,99747.63
2023-01-08T05:37:33.786Z,99750.72
2023-01-08T05:38:20.691Z,99743.88
2023-01-08T05:38:54.769Z,99735.63
2023-01-08T05:39:34.707Z,99729.53
2023-01-08T05:40:15.775Z,99732.94
2023-01-08T05:40:59.730Z,99731.66
2023-01-08T05:41:39.768Z,99733.91
2023-01-08T05:42:19.702Z,99719.38
2023-01-08T05:42:59.821Z,99721.09
2023-01-08T05:43:40.707Z,99747.28
2023-01-08T05:44:20.778Z,99717.75
2023-01-08T05:45:00.710Z,99747.41
2023-01-08T05:45:40.800Z,99716.47
2023-01-08T05:46:20.700Z,99724.59
2023-01-08T05:47:00.772Z,99727.38
2023-01-08T05:47:41.694Z,99744.94
2023-01-08T05:48:21.765Z,99741.09
2023-01-08T05:49:01.695Z,99742.25
2023-01-08T05:49:41.749Z,99725.56
2023-01-08T05:50:22.717Z,99726.31
2023-01-08T05:51:02.784Z,99733.91
2023-01-08T05:51:42.683Z,99729.19
2023-01-08T05:52:23.742Z,99721.91
2023-01-08T05:53:04.672Z,99722.19
2023-01-08T05:53:44.779Z,99739.31
2023-01-08T05:54:24.685Z,99703.91
2023-01-08T05:55:04.965Z,99710.63
2023-01-08T05:55:44.703Z,99728.81
2023-01-08T05:56:24.746Z,99737.38
2023-01-08T05:57:04.683Z,99732.59
2023-01-08T05:57:44.732Z,99713.88
2023-01-08T05:58:27.678Z,99727.56
2023-01-08T05:59:07.729Z,99733.56
2023-01-08T05:59:47.678Z,99713.13
2023-01-08T06:00:27.828Z,99715.78
2023-01-08T06:01:17.739Z,99714.09
2023-01-08T06:01:58.987Z,99734.22
2023-01-08T06:02:38.722Z,99719.13
2023-01-08T06:03:18.735Z,99735.06
2023-01-08T06:04:02.762Z,99733.59
2023-01-08T06:04:42.748Z,99731.13
2023-01-08T06:05:22.667Z,99733.91
2023-01-08T06:06:07.769Z,99723.53
2023-01-08T06:06:48.689Z,99725.22
2023-01-08T06:07:28.778Z,99714.97
2023-01-08T06:08:08.923Z,99725.47
2023-01-08T06:08:48.742Z,99715.50
2023-01-08T06:09:28.683Z,99742.34
2023-01-08T06:10:08.743Z,99718.59
2023-01-08T06:10:48.650Z,99710.56
2023-01-08T06:11:28.720Z,99725.03
2023-01-08T06:12:08.664Z,99715.38
2023-01-08T06:12:48.756Z,99713.47
2023-01-08T06:13:28.667Z,99715.59
2023-01-08T06:14:08.733Z,99724.34
2023-01-08T06:14:48.673Z,99736.88
2023-01-08T06:15:28.727Z,99742.97
2023-01-08T06:16:09.723Z,99736.13
2023-01-08T06:16:50.748Z,99741.88
2023-01-08T06:17:30.675Z,99732.72
2023-01-08T06:18:11.714Z,99735.16
2023-01-08T06:18:51.639Z,99739.22
2023-01-08T06:19:31.729Z,99738.88
2023-01-08T06:20:12.661Z,99724.34
2023-01-08T06:20:53.769Z,99726.16
2023-01-08T06:21:33.655Z,99734.63
2023-01-08T06:22:13.725Z,99730.75
2023-01-08T06:22:53.702Z,99730.56
2023-01-08T06:23:33.728Z,99739.31
2023-01-08T06:24:14.645Z,99738.34
2023-01-08T06:24:54.716Z,99731.81
2023-01-08T06:25:36.635Z,99735.47
2023-01-08T06:26:30.661Z,99723.13
2023-01-08T06:27:24.668Z,99712.75
2023-01-08T06:28:11.675Z,99733.94
2023-01-08T06:28:45.725Z,99707.19
2023-01-08T06:29:32.638Z,99730.28
2023-01-08T06:30:06.735Z,99716.19
2023-01-08T06:30:53.680Z,99726.66
2023-01-08T06:31:27.983Z,99733.31
2023-01-08T06:32:14.656Z,99709.34
2023-01-08T06:32:48.709Z,99737.59
2023-01-08T06:33:36.673Z,99731.59
2023-01-08T06:34:10.708Z,99704.44
2023-01-08T06:34:57.656Z,99730.13
2023-01-08T06:35:32.705Z,99723.06
2023-01-08T06:36:19.641Z,99706.66
2023-01-08T06:36:53.734Z,99694.69
2023-01-08T06:37:40.624Z,99725.50
2023-01-08T06:38:14.707Z,99707.53
2023-01-08T06:39:02.667Z,99700.47
2023-01-08T06:39:36.718Z,99706.56
2023-01-08T06:40:24.662Z,99708.03
2023-01-08T06:40:58.791Z,99701.31
2023-01-08T06:41:45.630Z,99716.59
2023-01-08T06:42:19.706Z,99689.97
2023-01-08T06:43:11.628Z,99700.13
2023-01-08T06:43:46.683Z,99724.72
2023-01-08T06:44:26.662Z,99723.41
2023-01-08T06:45:06.764Z,99720.50
2023-01-08T06:45:46.640Z,99702.44
2023-01-08T06:46:26.799Z,99707.56
2023-01-08T06:47:06.648Z,99709.91
2023-01-08T06:47:46.678Z,99708.84
2023-01-08T06:48:27.639Z,99676.84
2023-01-08T06:49:07.799Z,99725.72
2023-01-08T06:49:47.641Z,99726.44
2023-01-08T06:50:27.675Z,99694.47
2023-01-08T06:51:08.614Z,99710.09
2023-01-08T06:51:48.704Z,99701.94
2023-01-08T06:52:29.629Z,99712.44
2023-01-08T06:53:09.695Z,99720.88
2023-01-08T06:53:49.623Z,99695.06
2023-01-08T06:54:29.696Z,99720.34
2023-01-08T06:55:11.637Z,99719.84
2023-01-08T06:55:56.815Z,99719.63
2023-01-08T06:56:52.385Z,99715.19
2023-01-08T06:57:33.719Z,99692.13
2023-01-08T06:58:13.616Z,99712.00
2023-01-08T06:58:53.711Z,99722.06
2023-01-08T06:59:33.635Z,99729.25
2023-01-08T07:00:23.655Z,99720.81
2023-01-08T07:01:17.684Z,99720.75
2023-01-08T07:02:11.761Z,99714.00
2023-01-08T07:03:06.744Z,99702.38
2023-01-08T07:04:00.608Z,99726.63
2023-01-08T07:04:54.637Z,99726.63
2023-01-08T07:05:42.663Z,99724.06
2023-01-08T07:06:26.688Z,99718.06
2023-01-08T07:07:13.614Z,99733.44
2023-01-08T07:07:47.692Z,99726.63
2023-01-08T07:08:34.641Z,99731.66
2023-01-08T07:09:08.742Z,99733.56
2023-01-08T07:09:55.612Z,99707.56
2023-01-08T07:10:31.219Z,99735.06
2023-01-08T07:11:11.611Z,99711.00
2023-01-08T07:11:51.740Z,99710.22
2023-01-08T07:12:31.601Z,99731.72
2023-01-08T07:13:12.722Z,99736.88
2023-01-08T07:13:52.621Z,99734.19
2023-01-08T07:14:32.675Z,99722.69
2023-01-08T07:15:13.595Z,99733.44
2023-01-08T07:15:53.762Z,99726.16
2023-01-08T07:16:33.614Z,99722.97
2023-01-08T07:17:13.648Z,99717.59
2023-01-08T07:17:53.639Z,99698.06
2023-01-08T07:18:33.679Z,99720.03
2023-01-08T07:19:14.615Z,99712.56
2023-01-08T07:19:54.752Z,99694.06
2023-01-08T07:20:34.632Z,99719.72
2023-01-08T07:21:16.160Z,99729.13
2023-01-08T07:21:56.614Z,99710.09
2023-01-08T07:22:36.649Z,99716.69
2023-01-08T07:23:18.585Z,99710.59
2023-01-08T07:23:59.753Z,99725.78
2023-01-08T07:24:39.611Z,99718.19
2023-01-08T07:25:19.676Z,99711.13
2023-01-08T07:25:59.586Z,99725.44
2023-01-08T07:26:53.591Z,99708.97
2023-01-08T07:27:33.637Z,99710.66
2023-01-08T07:28:17.673Z,99704.22
2023-01-08T07:28:58.581Z,99708.97
2023-01-08T07:29:38.651Z,99689.44
2023-01-08T07:30:29.388Z,99708.25
2023-01-08T07:31:12.799Z,99693.50
2023-01-08T07:31:52.596Z,99697.78
2023-01-08T07:32:32.651Z,99705.22
2023-01-08T07:33:12.609Z,99707.56
2023-01-08T07:33:52.649Z,99700.50
2023-01-08T07:34:32.567Z,99703.91
2023-01-08T07:35:12.651Z,99704.78
2023-01-08T07:36:00.592Z,99691.72
2023-01-08T07:36:40.633Z,99710.13
2023-01-08T07:37:20.603Z,99684.66
2023-01-08T07:38:00.642Z,99686.97
2023-01-08T07:38:41.602Z,99689.53
2023-01-08T07:39:21.660Z,99681.31
2023-01-08T07:40:01.568Z,99685.38
2023-01-08T07:40:41.677Z,99681.25
2023-01-08T07:41:22.577Z,99692.47
2023-01-08T07:42:02.710Z,99674.13
2023-01-08T07:42:43.559Z,99671.44
2023-01-08T07:43:23.659Z,99694.72
2023-01-08T07:44:03.600Z,99693.66
2023-01-08T07:44:43.645Z,99682.44
2023-01-08T07:45:23.570Z,99665.84
2023-01-08T07:46:03.792Z,99689.16
2023-01-08T07:46:43.670Z,99692.00
2023-01-08T07:47:24.617Z,99697.13
2023-01-08T07:48:05.578Z,99691.63
2023-01-08T07:48:45.627Z,99698.47
2023-01-08T07:49:25.569Z,99691.03
2023-01-08T07:50:05.623Z,99681.44
2023-01-08T07:50:46.592Z,99694.06
2023-01-08T07:51:26.799Z,99675.88
2023-01-08T07:52:06.564Z,99681.75
2023-01-08T07:52:46.723Z,99675.03
2023-01-08T07:53:27.578Z,99684.19
2023-01-08T07:54:08.622Z,99702.88
2023-01-08T07:54:48.608Z,99699.78
2023-01-08T07:55:28.637Z,99691.03
2023-01-08T07:56:12.557Z,99697.41
2023-01-08T07:56:52.641Z,99683.50
2023-01-08T07:57:33.571Z,99702.53
2023-01-08T07:58:18.694Z,99695.06
2023-01-08T07:58:59.570Z,99688.84
2023-01-08T07:59:39.618Z,99678.59
2023-01-08T08:00:21.574Z,99694.72
2023-01-08T08:01:02.686Z,99673.00
2023-01-08T08:01:42.669Z,99693.13
2023-01-08T08:02:22.731Z,99664.91
2023-01-08T08:03:02.677Z,99682.00
2023-01-08T08:03:42.683Z,99685.41
2023-01-08T08:04:23.556Z,99684.81
2023-01-08T08:05:03.615Z,99680.53
2023-01-08T08:05:44.588Z,99664.00
2023-01-08T08:06:24.649Z,99687.06
2023-01-08T08:07:04.566Z,99679.19
2023-01-08T08:07:44.638Z,99686.31
2023-01-08T08:08:24.530Z,99684.53
2023-01-08T08:09:04.682Z,99690.16
2023-01-08T08:09:44.563Z,99660.84
2023-01-08T08:10:24.675Z,99687.22
2023-01-08T08:11:04.604Z,99686.94
2023-01-08T08:11:44.610Z,99672.97
2023-01-08T08:12:24.539Z,99680.94
2023-01-08T08:13:04.615Z,99678.16
2023-01-08T08:13:50.141Z,99668.66
2023-01-08T08:14:31.605Z,99679.84
2023-01-08T08:15:12.545Z,99695.03
2023-01-08T08:15:52.630Z,99683.06
2023-01-08T08:16:32.625Z,99694.47
2023-01-08T08:17:12.619Z,99681.66
2023-01-08T08:17:54.543Z,99686.16
2023-01-08T08:18:34.701Z,99680.88
2023-01-08T08:19:14.539Z,99672.13
2023-01-08T08:19:54.596Z,99680.69
2023-01-08T08:20:35.555Z,99685.19
2023-01-08T08:21:15.604Z,99675.53
2023-01-08T08:21:55.559Z,99668.72
2023-01-08T08:22:35.572Z,99685.78
2023-01-08T08:23:20.530Z,99678.00
2023-01-08T08:24:00.683Z,99670.41
2023-01-08T08:24:40.524Z,99662.06
2023-01-08T08:25:20.661Z,99686.16
2023-01-08T08:26:00.530Z,99684.78
2023-01-08T08:26:40.629Z,99691.84
2023-01-08T08:27:21.553Z,99679.44